Latest Weather Observations for Wilcannia Airport

IDN60801

Issued at 6:35 am EDT Sunday 26 October 2014 (issued every 30 minutes, with the page automatically refreshed every 10 minutes)

About weather observations | Map of weather stations | Latest weather observations for NSW | Other Formats
Station Details ID: 046012 Name: WILCANNIA AERODROME AWS Lat: -31.52 Lon: 143.38 Height: 94.3 m
Data from the previous 72 hours. | See also: Recent months for locations in New South Wales
Date/Time
EDT
Temp
°C
App
Temp
°C
Dew
Point
Rel
Hum
%
Delta-T
°C
Wind Press
QNH
hPa
Press
MSL
hPa
Rain
since 9 am
mm
Dir
 
Spd
km/h
Gust
km/h
Spd
kts
Gust
kts
26/06:30am 17.1 13.5 5.1 45 5.8 SW 13 13 7 7 1012.3 1012.1 0.0
26/06:00am 17.6 14.4 4.9 43 6.1 SW 11 13 6 7 1012.3 1012.1 0.0
26/05:30am 18.2 14.6 5.1 42 6.3 SW 13 15 7 8 1012.2 1012.0 0.0
26/05:00am 18.3 14.8 5.5 43 6.3 WSW 13 17 7 9 1012.4 1012.2 0.0
26/04:30am 18.0 14.8 4.9 42 6.3 WSW 11 13 6 7 1012.5 1012.3 0.0
26/04:00am 19.0 16.1 4.4 38 7.0 W 9 13 5 7 1012.5 1012.3 0.0
26/03:30am 20.2 16.5 4.3 35 7.7 NW 13 15 7 8 1012.4 1012.2 0.0
26/03:00am 20.9 17.1 4.0 33 8.2 NNW 13 15 7 8 1012.6 1012.4 0.0
26/02:30am 20.8 17.5 4.4 34 8.0 W 11 11 6 6 1012.7 1012.5 0.0
26/02:00am 21.6 18.0 5.1 34 8.2 WSW 13 13 7 7 1013.0 1012.7 0.0
26/01:30am 22.5 18.5 5.0 32 8.7 WSW 15 19 8 10 1013.2 1012.9 0.0
26/01:00am 23.1 19.5 5.1 31 9.0 SW 13 17 7 9 1013.3 1013.0 0.0
26/12:30am 23.4 20.6 5.3 31 9.1 WSW 9 13 5 7 1013.2 1012.9 0.0
26/12:00am 23.8 21.5 4.7 29 9.5 SW 6 9 3 5 1013.2 1012.9 0.0
 
Date/Time
EDT
Temp
°C
App
Temp
°C
Dew
Point
Rel
Hum
%
Delta-T
°C
Wind Press
QNH
hPa
Press
MSL
hPa
Rain
since 9 am
mm
Dir
 
Spd
km/h
Gust
km/h
Spd
kts
Gust
kts
25/11:30pm 25.5 22.2 4.6 26 10.5 SW 11 13 6 7 1013.3 1013.0 0.0
25/11:00pm 25.4 21.7 4.5 26 10.5 SW 13 15 7 8 1013.4 1013.1 0.0
25/10:30pm 26.8 23.1 4.6 24 11.3 SW 13 13 7 7 1013.3 1013.0 0.0
25/10:00pm 27.5 24.1 3.9 22 11.9 SW 11 13 6 7 1013.2 1012.9 0.0
25/09:30pm 29.0 25.2 3.8 20 12.8 SSW 13 15 7 8 1012.9 1012.6 0.0
25/09:00pm 30.5 26.5 2.7 17 14.0 SSW 13 17 7 9 1012.2 1012.0 0.0
25/08:30pm 31.1 27.2 3.2 17 14.2 SSW 13 17 7 9 1011.7 1011.5 0.0
25/08:00pm 33.2 28.9 3.1 15 15.5 SSW 15 20 8 11 1011.3 1011.1 0.0
25/07:30pm 35.2 29.3 3.7 14 16.6 SSW 24 33 13 18 1011.0 1010.8 0.0
25/07:00pm 36.6 30.3 3.7 13 17.5 SSW 26 35 14 19 1010.6 1010.4 0.0
25/06:30pm 37.7 30.4 4.6 13 17.9 SW 32 41 17 22 1010.3 1010.1 0.0
25/06:01pm 38.4 30.4 4.0 12 18.5 SW 35 54 19 29 1010.1 1009.9 0.0
25/06:00pm 38.3 29.9 3.9 12 18.5 SW 37 54 20 29 1010.1 1009.9 0.0
25/05:56pm 38.4 30.8 4.0 12 18.5 SSW 33 54 18 29 1010.1 1009.9 0.0
25/05:30pm 39.8 31.6 2.5 10 19.8 WSW 35 48 19 26 1009.9 1009.7 0.0
25/05:21pm 40.5 33.7 3.0 10 20.1 WSW 28 48 15 26 1009.8 1009.6 0.0
25/05:00pm 40.3 33.4 2.8 10 20.0 WSW 28 41 15 22 1009.9 1009.7 0.0
25/04:37pm 40.8 34.0 3.2 10 20.2 W 28 46 15 25 1010.0 1009.8 0.0
25/04:30pm 39.7 32.0 2.4 10 19.7 WSW 32 46 17 25 1010.1 1009.9 0.0
25/04:09pm 40.5 31.7 1.5 9 20.4 W 37 56 20 30 1010.2 1010.0 0.0
25/04:00pm 41.1 33.2 2.0 9 20.7 W 33 48 18 26 1010.2 1010.0 0.0
25/03:36pm 40.2 32.6 2.8 10 20.0 W 32 50 17 27 1010.6 1010.4 0.0
25/03:30pm 40.8 32.7 3.2 10 20.2 W 35 50 19 27 1010.7 1010.5 0.0
25/03:11pm 40.2 33.6 4.1 11 19.6 W 28 44 15 24 1010.9 1010.7 0.0
25/03:00pm 37.5 34.8 5.5 14 17.6 WNW 9 22 5 12 1011.2 1011.0 0.0
25/02:44pm 37.7 30.4 4.6 13 17.9 W 32 74 17 40 1011.7 1011.5 0.0
25/02:30pm 39.2 32.6 2.0 10 19.5 WNW 26 43 14 23 1011.6 1011.4 0.0
25/02:03pm 41.2 34.5 3.5 10 20.4 WNW 28 46 15 25 1012.0 1011.8 0.0
25/02:00pm 40.9 33.8 3.3 10 20.3 W 30 46 16 25 1012.1 1011.9 0.0
25/01:37pm 40.1 32.8 2.7 10 19.9 W 30 48 16 26 1012.3 1012.1 0.0
25/01:30pm 39.4 31.7 3.5 11 19.3 W 33 44 18 24 1012.5 1012.3 0.0
25/01:00pm 40.0 32.2 2.6 10 19.9 W 33 48 18 26 1012.9 1012.6 0.0
25/12:30pm 39.8 33.1 3.8 11 19.5 WNW 28 48 15 26 1013.4 1013.1 0.0
25/12:28pm 40.0 33.4 4.0 11 19.5 WNW 28 48 15 26 1013.4 1013.1 0.0
25/12:00pm 39.1 32.7 3.3 11 19.1 WNW 26 41 14 22 1013.8 1013.5 0.0
25/11:30am 38.7 32.9 4.2 12 18.7 NW 24 37 13 20 1014.2 1013.9 0.0
25/11:00am 37.5 32.3 3.3 12 18.1 NW 20 30 11 16 1014.5 1014.2 0.0
25/10:30am 36.4 30.8 3.6 13 17.4 NNW 22 33 12 18 1014.6 1014.3 0.0
25/10:00am 34.9 29.9 3.5 14 16.4 NNW 19 28 10 15 1014.7 1014.4 0.0
25/09:30am 32.8 27.7 2.8 15 15.4 NW 19 24 10 13 1014.8 1014.5 0.0
25/09:00am 31.1 26.8 3.2 17 14.2 NNW 15 20 8 11 1014.9 1014.6 0.0
25/08:30am 29.4 25.1 3.4 19 13.2 NW 15 19 8 10 1015.0 1014.7 0.0
25/08:00am 28.2 25.3 4.5 22 12.1 NNW 9 11 5 6 1014.7 1014.4 0.0
25/07:30am 25.9 21.7 3.8 24 11.0 NNW 15 19 8 10 1014.4 1014.1 0.0
25/07:00am 23.7 19.9 4.1 28 9.7 NNW 13 17 7 9 1013.9 1013.6 0.0
25/06:30am 23.2 19.0 3.7 28 9.5 N 15 17 8 9 1013.4 1013.1 0.0
25/06:00am 19.9 16.0 3.2 33 7.9 NNE 13 15 7 8 1013.1 1012.8 0.0
25/05:30am 20.9 16.5 2.7 30 8.6 NE 15 17 8 9 1012.9 1012.6 0.0
25/05:00am 21.7 17.3 2.9 29 9.0 ENE 15 17 8 9 1012.9 1012.6 0.0
25/04:30am 22.5 18.5 3.1 28 9.3 NE 13 15 7 8 1012.9 1012.6 0.0
25/04:00am 22.9 18.9 2.9 27 9.6 NE 13 17 7 9 1013.0 1012.7 0.0
25/03:30am 23.2 19.3 3.2 27 9.7 NE 13 15 7 8 1013.1 1012.8 0.0
25/03:00am 23.6 20.0 3.0 26 10.0 NE 11 11 6 6 1013.3 1013.0 0.0
25/02:30am 25.0 22.2 3.0 24 10.7 NE 7 9 4 5 1013.7 1013.4 0.0
25/02:00am 27.7 22.9 2.7 20 12.4 N 17 19 9 10 1013.8 1013.5 0.0
25/01:30am 26.2 21.8 2.8 22 11.5 N 15 17 8 9 1014.0 1013.7 0.0
25/01:00am 26.3 21.9 2.9 22 11.5 N 15 17 8 9 1014.3 1014.0 0.0
25/12:30am 26.2 22.2 2.8 22 11.5 N 13 17 7 9 1014.6 1014.3 0.0
25/12:00am 27.5 23.1 2.6 20 12.3 N 15 19 8 10 1014.7 1014.4 0.0
 
Date/Time
EDT
Temp
°C
App
Temp
°C
Dew
Point
Rel
Hum
%
Delta-T
°C
Wind Press
QNH
hPa
Press
MSL
hPa
Rain
since 9 am
mm
Dir
 
Spd
km/h
Gust
km/h
Spd
kts
Gust
kts
24/11:30pm 26.7 22.9 3.9 23 11.4 NNE 13 15 7 8 1014.8 1014.5 0.0
24/11:00pm 26.3 23.3 4.1 24 11.2 NE 9 11 5 6 1014.8 1014.5 0.0
24/10:30pm 26.2 23.4 6.8 29 10.2 NE 11 11 6 6 1014.8 1014.5 0.0
24/10:00pm 26.6 23.8 5.0 25 11.0 NE 9 9 5 5 1014.6 1014.3 0.0
24/09:30pm 27.1 24.9 6.0 26 11.0 ENE 7 7 4 4 1014.6 1014.3 0.0
24/09:00pm 28.7 27.3 3.5 20 12.7 CALM 0 0 0 0 1014.3 1014.0 0.0
24/08:30pm 28.6 25.7 4.8 22 12.3 S 9 9 5 5 1014.2 1013.9 0.0
24/08:00pm 30.2 27.3 2.5 17 13.9 SSW 7 7 4 4 1014.1 1013.8 0.0
24/07:30pm 32.0 28.6 2.1 15 15.1 SSW 9 11 5 6 1013.7 1013.4 0.0
24/07:00pm 33.3 29.8 1.2 13 16.1 SSW 9 11 5 6 1013.3 1013.0 0.0
24/06:30pm 34.9 31.0 1.3 12 17.0 SSE 11 17 6 9 1013.1 1012.8 0.0
24/06:00pm 35.4 32.0 1.7 12 17.2 SSE 9 15 5 8 1013.0 1012.7 0.0
24/05:30pm 35.8 30.7 0.8 11 17.7 S 17 22 9 12 1012.7 1012.5 0.0
24/05:00pm 36.2 31.5 1.1 11 17.8 SSW 15 19 8 10 1012.7 1012.5 0.0
24/04:30pm 36.2 31.5 1.1 11 17.8 S 15 22 8 12 1012.7 1012.5 0.0
24/04:00pm 37.4 31.7 0.7 10 18.7 SW 20 28 11 15 1013.0 1012.7 0.0
24/03:30pm 36.5 30.7 0.0 10 18.3 SW 20 32 11 17 1013.3 1013.0 0.0
24/03:00pm 36.4 29.6 -1.5 9 18.5 SW 24 33 13 18 1013.4 1013.1 0.0
24/02:30pm 37.6 31.4 -0.6 9 19.1 SW 22 32 12 17 1013.6 1013.3 0.0
24/02:00pm 38.3 31.0 -0.1 9 19.4 WSW 28 41 15 22 1013.8 1013.5 0.0
24/01:30pm 37.6 29.8 -0.6 9 19.1 WSW 30 39 16 21 1014.1 1013.8 0.0
24/01:00pm 37.4 31.0 0.7 10 18.7 W 24 37 13 20 1014.3 1014.0 0.0
24/12:30pm 36.0 28.5 0.9 11 17.8 WNW 30 39 16 21 1014.4 1014.1 0.0
24/12:00pm 35.2 30.0 3.7 14 16.6 WNW 20 28 11 15 1014.6 1014.3 0.0
24/11:30am 33.9 28.9 4.6 16 15.5 NW 20 26 11 14 1014.8 1014.5 0.0
24/11:00am 31.8 29.4 6.8 21 13.6 W 9 11 5 6 1014.8 1014.5 0.0
24/10:30am 30.6 27.2 7.7 24 12.6 SSW 15 20 8 11 1015.1 1014.8 0.0
24/10:00am 28.9 25.9 7.5 26 11.6 SSW 13 19 7 10 1015.1 1014.8 0.0
24/09:30am 27.4 23.7 7.8 29 10.6 SW 17 22 9 12 1015.2 1014.9 0.0
24/09:00am 25.4 21.1 7.1 31 9.6 SW 19 24 10 13 1015.0 1014.7 0.0
24/08:30am 23.4 19.1 7.1 35 8.5 WSW 19 24 10 13 1015.0 1014.7 0.0
24/08:00am 22.2 17.8 4.7 32 8.6 W 17 22 9 12 1014.6 1014.3 0.0
24/07:30am 20.1 16.2 3.3 33 8.0 W 13 17 7 9 1014.0 1013.7 0.0
24/07:00am 19.5 15.0 2.4 32 7.9 W 15 22 8 12 1014.0 1013.7 0.0
24/06:30am 19.9 15.1 2.7 32 8.0 WNW 17 17 9 9 1013.0 1012.7 0.0
24/06:00am 19.4 15.8 3.2 34 7.6 WNW 11 15 6 8 1012.6 1012.4 0.0
24/05:30am 20.5 16.2 3.3 32 8.2 WNW 15 15 8 8 1012.7 1012.5 0.0
24/05:00am 21.2 17.4 3.9 32 8.4 WNW 13 15 7 8 1012.6 1012.4 0.0
24/04:30am 20.8 17.1 6.4 39 7.3 WNW 15 19 8 10 1012.6 1012.4 0.0
24/04:00am 20.7 17.4 6.6 40 7.2 WNW 13 15 7 8 1012.6 1012.4 0.0
24/03:30am 20.8 17.8 6.0 38 7.4 W 11 13 6 7 1012.7 1012.5 0.0
24/03:00am 21.9 18.4 5.3 34 8.3 WNW 13 15 7 8 1012.9 1012.6 0.0
24/02:30am 21.6 18.4 5.1 34 8.2 W 11 13 6 7 1012.9 1012.6 0.0
24/02:00am 22.3 19.2 5.7 34 8.4 W 11 11 6 6 1013.1 1012.8 0.0
24/01:30am 23.5 20.4 7.2 35 8.5 W 13 15 7 8 1013.3 1013.0 0.0
24/01:00am 23.1 20.9 6.0 33 8.7 WNW 7 9 4 5 1013.3 1013.0 0.0
24/12:30am 23.5 21.0 6.7 34 8.7 WNW 9 11 5 6 1013.3 1013.0 0.0
24/12:00am 24.8 22.1 5.6 29 9.8 NW 9 11 5 6 1013.5 1013.2 0.0
 
Date/Time
EDT
Temp
°C
App
Temp
°C
Dew
Point
Rel
Hum
%
Delta-T
°C
Wind Press
QNH
hPa
Press
MSL
hPa
Rain
since 9 am
mm
Dir
 
Spd
km/h
Gust
km/h
Spd
kts
Gust
kts
23/11:30pm 24.4 21.7 5.7 30 9.6 WNW 9 9 5 5 1013.4 1013.1 0.0
23/11:00pm 25.4 21.9 5.6 28 10.2 NNW 13 15 7 8 1013.3 1013.0 0.0
23/10:30pm 25.6 22.7 6.3 29 10.0 NW 11 11 6 6 1013.0 1012.7 0.0
23/10:00pm 26.9 23.7 5.2 25 11.2 NW 11 11 6 6 1012.7 1012.5 0.0
23/09:30pm 25.6 23.1 6.7 30 9.9 WNW 9 11 5 6 1012.4 1012.2 0.0
23/09:00pm 28.5 25.0 5.4 23 12.0 WNW 13 13 7 7 1012.1 1011.9 0.0
23/08:30pm 29.2 25.7 5.3 22 12.5 NNW 13 17 7 9 1011.8 1011.6 0.0
23/08:00pm 30.8 26.8 2.9 17 14.1 NNW 13 15 7 8 1011.5 1011.3 0.0
23/07:30pm 34.2 30.2 2.9 14 16.2 NW 13 19 7 10 1011.3 1011.1 0.0
23/07:00pm 36.2 31.3 2.3 12 17.6 NW 17 24 9 13 1011.1 1010.9 0.0
23/06:30pm 36.8 32.0 2.8 12 17.8 WNW 17 22 9 12 1011.0 1010.8 0.0
23/06:00pm 37.8 31.5 3.5 12 18.3 W 26 35 14 19 1011.0 1010.8 0.0
23/05:30pm 38.1 32.6 3.8 12 18.4 W 22 32 12 17 1010.9 1010.7 0.0
23/05:00pm 38.0 34.2 3.7 12 18.4 N 13 22 7 12 1011.0 1010.8 0.0
23/04:30pm 37.2 31.0 4.2 13 17.7 NW 26 39 14 21 1011.4 1011.2 0.0
23/04:00pm 37.0 32.1 4.0 13 17.6 NW 19 30 10 16 1011.6 1011.4 0.0
23/03:30pm 38.4 33.7 5.1 13 18.2 NNW 19 35 10 19 1012.0 1011.8 0.0
23/03:00pm 38.0 32.7 4.8 13 18.1 NW 22 35 12 19 1012.3 1012.1 0.0
23/02:30pm 37.7 32.1 5.6 14 17.6 NNW 24 30 13 16 1013.0 1012.7 0.0
23/02:00pm 37.5 32.9 5.5 14 17.5 WNW 19 32 10 17 1013.4 1013.1 0.0
23/01:30pm 37.8 33.0 5.7 14 17.7 WNW 20 33 11 18 1013.9 1013.6 0.0
23/01:00pm 37.1 32.2 5.2 14 17.4 NW 20 30 11 16 1014.4 1014.1 0.0
23/12:30pm 36.0 31.1 5.3 15 16.7 NW 20 39 11 21 1015.0 1014.7 0.0
23/12:00pm 35.0 30.5 6.3 17 15.7 W 19 22 10 12 1015.4 1015.1 0.0
23/11:30am 34.2 31.1 8.8 21 14.4 NW 15 22 8 12 1015.9 1015.6 0.0
23/11:00am 32.4 29.6 8.6 23 13.3 NNW 13 20 7 11 1016.2 1015.9 0.0
23/10:30am 31.0 27.7 8.1 24 12.7 NW 15 24 8 13 1016.5 1016.2 0.0
23/10:00am 30.0 26.7 9.5 28 11.5 WNW 17 26 9 14 1016.5 1016.2 0.0
23/09:30am 29.1 25.6 8.7 28 11.3 WNW 17 28 9 15 1016.6 1016.3 0.0
23/09:00am 27.4 24.9 9.7 33 9.9 NNW 13 17 7 9 1016.5 1016.2 5.4
23/08:30am 25.1 23.1 10.2 39 8.3 NNW 11 13 6 7 1016.5 1016.2 5.4
23/08:00am 22.4 20.3 9.9 45 6.8 NNW 11 17 6 9 1016.4 1016.1 5.4
23/07:30am 21.4 19.0 9.9 48 6.2 NNW 13 15 7 8 1016.2 1015.9 5.4
23/07:00am 20.0 17.9 9.6 51 5.6 NE 11 13 6 7 1015.8 1015.5 5.4

Other Formats:

Comma delimited format used in spreadsheet applications
http://www.bom.gov.au/fwo/IDN60801/IDN60801.95695.axf

JavaScript Object Notation format (JSON) in row-major order
http://www.bom.gov.au/fwo/IDN60801/IDN60801.95695.json